Time;durP1;ratioP1;P1;durP2;ratioP2;P2;SDS_P1;SDS_P2;PMS_P1;PMS_P2;Temp;Humidity;BMP_temperature;BMP_pressure;BME280_temperature;BME280_humidity;BME280_pressure;Samples;Min_cycle;Max_cycle;Signal;HPM_P1;HPM_P2
2023/04/14 00:00:18;;;;;;;0.80;0.80;;;;;4.40;95172.00;;;;5053856;28;20224;-64
2023/04/14 00:02:46;;;;;;;0.93;0.93;;;;;4.30;95176.00;;;;5053545;28;20293;-63
2023/04/14 00:05:15;;;;;;;1.00;1.00;;;;;4.20;95159.00;;;;5053560;28;20192;-63
2023/04/14 00:07:42;;;;;;;1.37;1.37;;;;;4.10;95165.00;;;;5053509;28;20244;-62
2023/04/14 00:10:10;;;;;;;1.23;1.13;;;;;4.10;95155.00;;;;5053427;28;20187;-63
2023/04/14 00:12:38;;;;;;;0.80;0.80;;;;;4.10;95148.00;;;;5053336;28;20196;-63
2023/04/14 00:15:06;;;;;;;0.80;0.80;;;;;4.10;95150.00;;;;5053290;28;20196;-63
2023/04/14 00:17:33;;;;;;;0.97;0.97;;;;;4.00;95150.00;;;;5053811;28;20188;-62
2023/04/14 00:20:01;;;;;;;0.70;0.70;;;;;4.00;95150.00;;;;5053337;28;20289;-63
2023/04/14 00:22:30;;;;;;;0.97;0.90;;;;;4.00;95158.00;;;;5053305;28;20192;-63
2023/04/14 00:25:00;;;;;;;0.80;0.80;;;;;4.00;95152.00;;;;5053179;28;20196;-63
2023/04/14 00:27:28;;;;;;;5.93;1.10;;;;;4.00;95154.00;;;;5053123;28;20656;-63
2023/04/14 00:29:55;;;;;;;0.70;0.70;;;;;3.90;95146.00;;;;5053181;28;20192;-63
2023/04/14 00:32:23;;;;;;;1.00;1.00;;;;;3.90;95154.00;;;;5035246;28;20195;-63
2023/04/14 00:34:50;;;;;;;0.60;0.60;;;;;3.90;95155.00;;;;5053682;28;20192;-63
2023/04/14 00:37:17;;;;;;;0.70;0.70;;;;;3.90;95145.00;;;;5052994;28;20572;-63
2023/04/14 00:39:46;;;;;;;0.60;0.60;;;;;3.80;95150.00;;;;5052938;28;20693;-62
2023/04/14 00:42:13;;;;;;;0.77;0.77;;;;;3.80;95150.00;;;;5053454;28;20196;-63
2023/04/14 00:44:41;;;;;;;0.97;0.97;;;;;3.80;95149.00;;;;5053104;28;20189;-63
2023/04/14 00:47:08;;;;;;;0.90;0.90;;;;;3.80;95147.00;;;;5053053;28;20686;-63
2023/04/14 00:49:37;;;;;;;1.23;1.13;;;;;3.70;95147.00;;;;5052830;28;20721;-63
2023/04/14 00:52:05;;;;;;;1.83;1.73;;;;;3.80;95149.00;;;;5053560;28;20195;-64
2023/04/14 00:54:34;;;;;;;1.00;1.00;;;;;3.80;95156.00;;;;5053602;28;20275;-63
2023/04/14 00:57:03;;;;;;;0.90;0.90;;;;;3.80;95148.00;;;;5052607;28;20278;-63
2023/04/14 00:59:31;;;;;;;1.07;1.07;;;;;3.70;95141.00;;;;5053831;28;20199;-62
2023/04/14 01:01:59;;;;;;;1.00;1.00;;;;;3.70;95148.00;;;;5052973;28;20278;-63
2023/04/14 01:04:27;;;;;;;2.17;2.07;;;;;3.70;95154.00;;;;5052671;28;20674;-62
2023/04/14 01:06:54;;;;;;;1.13;1.00;;;;;3.70;95157.00;;;;5052715;28;20274;-63
2023/04/14 01:09:22;;;;;;;5.60;1.60;;;;;3.60;95161.00;;;;5034710;28;20546;-63
2023/04/14 01:12:01;;;;;;;1.23;1.13;;;;;3.70;95159.00;;;;5052666;28;20192;-63
2023/04/14 01:14:41;;;;;;;1.37;1.27;;;;;3.60;95168.00;;;;5052732;28;20223;-63
2023/04/14 01:17:17;;;;;;;1.17;1.17;;;;;3.60;95168.00;;;;5052658;28;20222;-63
2023/04/14 01:20:13;;;;;;;1.13;1.13;;;;;3.60;95180.00;;;;5052942;28;20513;-63
2023/04/14 01:22:47;;;;;;;1.83;1.73;;;;;3.60;95176.00;;;;5052143;28;20215;-63
2023/04/14 01:25:57;;;;;;;1.00;1.00;;;;;3.60;95169.00;;;;5052789;28;20192;-63
2023/04/14 01:28:39;;;;;;;1.40;1.30;;;;;3.60;95178.00;;;;5053072;28;20196;-63
2023/04/14 01:31:24;;;;;;;1.00;1.00;;;;;3.50;95179.00;;;;5052531;28;20590;-63
2023/04/14 01:33:57;;;;;;;0.70;0.70;;;;;3.50;95189.00;;;;5052991;28;20215;-63
2023/04/14 01:36:30;;;;;;;0.70;0.70;;;;;3.50;95185.00;;;;5052372;28;20311;-62
2023/04/14 01:38:59;;;;;;;3.20;1.43;;;;;3.50;95183.00;;;;5052303;28;20260;-62
2023/04/14 01:41:28;;;;;;;0.73;0.73;;;;;3.40;95178.00;;;;5052239;28;20212;-62
2023/04/14 01:43:58;;;;;;;0.67;0.67;;;;;3.50;95183.00;;;;5052287;28;20188;-62
2023/04/14 01:46:27;;;;;;;1.03;1.03;;;;;3.50;95185.00;;;;5052419;28;20223;-62
2023/04/14 01:48:55;;;;;;;0.70;0.70;;;;;3.50;95181.00;;;;5052244;28;20239;-61
2023/04/14 01:51:25;;;;;;;1.00;1.00;;;;;3.50;95192.00;;;;5052190;28;20192;-62
2023/04/14 01:53:56;;;;;;;0.90;0.90;;;;;3.50;95197.00;;;;5052231;28;20248;-62
2023/04/14 01:56:25;;;;;;;0.70;0.70;;;;;3.40;95183.00;;;;5052101;28;20285;-63
2023/04/14 01:58:54;;;;;;;0.70;0.70;;;;;3.30;95188.00;;;;5052396;28;20220;-62
2023/04/14 02:01:21;;;;;;;7.43;1.60;;;;;3.20;95186.00;;;;5052062;28;20239;-62
2023/04/14 02:03:50;;;;;;;0.90;0.90;;;;;3.10;95179.00;;;;5034249;28;20534;-62
2023/04/14 02:06:20;;;;;;;2.57;1.03;;;;;3.10;95182.00;;;;5052298;28;20216;-62
2023/04/14 02:08:48;;;;;;;0.70;0.70;;;;;3.20;95191.00;;;;5054194;28;20188;-62
2023/04/14 02:11:18;;;;;;;0.60;0.60;;;;;3.20;95188.00;;;;5055688;28;20249;-63
2023/04/14 02:13:46;;;;;;;1.07;1.07;;;;;3.10;95192.00;;;;5055652;28;20247;-63
2023/04/14 02:16:15;;;;;;;2.40;1.60;;;;;3.00;95203.00;;;;5055726;28;20282;-63
2023/04/14 02:18:43;;;;;;;2.37;1.13;;;;;3.00;95198.00;;;;5055546;28;20684;-63
2023/04/14 02:21:15;;;;;;;0.60;0.60;;;;;2.90;95196.00;;;;5055705;28;20215;-62
2023/04/14 02:23:43;;;;;;;0.80;0.80;;;;;2.80;95193.00;;;;5037693;28;20220;-62
2023/04/14 02:26:14;;;;;;;0.60;0.60;;;;;2.80;95194.00;;;;5055354;28;20212;-63
2023/04/14 02:28:48;;;;;;;0.70;0.70;;;;;2.80;95187.00;;;;5055471;28;20207;-63
2023/04/14 02:31:20;;;;;;;0.60;0.60;;;;;2.80;95198.00;;;;5055760;28;20172;-63
2023/04/14 02:33:52;;;;;;;1.57;1.47;;;;;2.70;95196.00;;;;5037442;28;20188;-63
2023/04/14 02:36:27;;;;;;;3.67;1.63;;;;;2.70;95182.00;;;;5055193;28;20694;-63
2023/04/14 02:38:59;;;;;;;0.60;0.60;;;;;2.50;95186.00;;;;5055276;28;20238;-64
2023/04/14 02:41:28;;;;;;;1.80;0.90;;;;;2.60;95194.00;;;;5055272;28;20760;-64
2023/04/14 02:44:03;;;;;;;0.60;0.60;;;;;2.50;95195.00;;;;5037224;28;20560;-64
2023/04/14 02:46:37;;;;;;;0.63;0.63;;;;;2.50;95190.00;;;;5055107;28;20215;-64
2023/04/14 02:49:06;;;;;;;0.80;0.80;;;;;2.60;95189.00;;;;5055386;28;20191;-64
2023/04/14 02:51:37;;;;;;;0.70;0.70;;;;;2.60;95207.00;;;;5055085;28;20274;-63
2023/04/14 02:54:05;;;;;;;0.90;0.90;;;;;2.50;95202.00;;;;5037122;28;20623;-63
2023/04/14 02:56:34;;;;;;;0.60;0.60;;;;;2.60;95185.00;;;;5054991;28;20691;-63
2023/04/14 02:59:03;;;;;;;0.80;0.80;;;;;2.60;95195.00;;;;5055098;28;20202;-63
2023/04/14 03:01:31;;;;;;;1.23;1.13;;;;;2.50;95194.00;;;;5054804;28;20220;-63
2023/04/14 03:04:00;;;;;;;0.87;0.87;;;;;2.50;95185.00;;;;5036866;28;20204;-63
2023/04/14 03:06:28;;;;;;;0.70;0.70;;;;;2.50;95203.00;;;;5054799;28;20583;-63
2023/04/14 03:08:58;;;;;;;0.80;0.80;;;;;2.50;95198.00;;;;5054678;28;20200;-63
2023/04/14 03:11:27;;;;;;;0.60;0.60;;;;;2.20;95194.00;;;;5054897;28;20192;-63
2023/04/14 03:13:57;;;;;;;2.73;1.70;;;;;2.10;95198.00;;;;5054824;28;20200;-62
2023/04/14 03:16:26;;;;;;;0.90;0.90;;;;;2.20;95194.00;;;;5054611;28;20215;-63
2023/04/14 03:18:54;;;;;;;0.90;0.90;;;;;2.10;95192.00;;;;5053932;28;20606;-63
2023/04/14 03:21:23;;;;;;;1.23;1.23;;;;;2.30;95189.00;;;;5053832;28;20234;-63
2023/04/14 03:23:54;;;;;;;0.90;0.90;;;;;1.90;95195.00;;;;5036522;28;20655;-63
2023/04/14 03:26:27;;;;;;;1.17;1.07;;;;;1.80;95196.00;;;;5054514;28;20227;-63
2023/04/14 03:28:56;;;;;;;0.90;0.90;;;;;1.90;95195.00;;;;5054849;28;20616;-63
2023/04/14 03:31:30;;;;;;;0.83;0.83;;;;;1.90;95187.00;;;;5036303;28;20196;-62
2023/04/14 03:33:59;;;;;;;0.60;0.60;;;;;1.90;95192.00;;;;5054474;28;20181;-63
2023/04/14 03:36:29;;;;;;;1.43;1.33;;;;;1.80;95204.00;;;;5054071;28;20273;-63
2023/04/14 03:38:58;;;;;;;0.83;0.83;;;;;1.60;95196.00;;;;5054326;28;20218;-63
2023/04/14 03:41:27;;;;;;;0.80;0.80;;;;;1.60;95196.00;;;;5054333;28;20679;-63
2023/04/14 03:43:56;;;;;;;0.70;0.70;;;;;1.50;95195.00;;;;5054276;28;20286;-64
2023/04/14 03:46:25;;;;;;;0.93;0.93;;;;;1.60;95191.00;;;;5053855;28;20277;-63
2023/04/14 03:48:54;;;;;;;1.27;1.03;;;;;1.60;95188.00;;;;5035922;28;20226;-62
2023/04/14 03:51:26;;;;;;;0.80;0.80;;;;;1.60;95188.00;;;;5053824;28;20192;-63
2023/04/14 03:53:55;;;;;;;0.87;0.87;;;;;1.60;95191.00;;;;5054122;28;20222;-64
2023/04/14 03:56:24;;;;;;;1.00;1.00;;;;;1.60;95189.00;;;;5053678;28;20312;-63
2023/04/14 03:58:55;;;;;;;0.77;0.77;;;;;1.60;95194.00;;;;5053982;28;20245;-64
2023/04/14 04:01:24;;;;;;;1.10;1.10;;;;;1.60;95183.00;;;;5053735;28;20204;-63
2023/04/14 04:03:53;;;;;;;0.90;0.90;;;;;1.60;95192.00;;;;5053526;28;20196;-63
2023/04/14 04:06:21;;;;;;;1.07;1.07;;;;;1.60;95192.00;;;;5053541;28;20698;-64
2023/04/14 04:08:49;;;;;;;0.90;0.90;;;;;1.80;95182.00;;;;5053515;28;20195;-64
2023/04/14 04:11:19;;;;;;;0.87;0.87;;;;;1.70;95184.00;;;;5054027;28;20250;-63
2023/04/14 04:13:49;;;;;;;1.10;1.10;;;;;1.70;95187.00;;;;5053520;28;20199;-63
2023/04/14 04:16:19;;;;;;;0.63;0.63;;;;;1.70;95195.00;;;;5053647;28;20597;-63
2023/04/14 04:18:50;;;;;;;0.90;0.90;;;;;1.80;95193.00;;;;5053522;28;20204;-63
2023/04/14 04:21:19;;;;;;;1.00;1.00;;;;;1.90;95190.00;;;;5053506;28;20570;-62
2023/04/14 04:23:51;;;;;;;1.37;0.87;;;;;1.90;95188.00;;;;5053272;28;20238;-63
2023/04/14 04:26:19;;;;;;;1.07;1.07;;;;;1.90;95189.00;;;;5053717;28;20761;-63
2023/04/14 04:28:47;;;;;;;0.77;0.77;;;;;1.90;95182.00;;;;5053170;28;20200;-63
2023/04/14 04:31:17;;;;;;;1.10;1.10;;;;;1.80;95193.00;;;;5052780;28;20192;-63
2023/04/14 04:33:46;;;;;;;0.70;0.70;;;;;1.90;95193.00;;;;5053695;28;20659;-63
2023/04/14 04:36:14;;;;;;;1.13;1.13;;;;;1.90;95195.00;;;;5053035;28;20729;-63
2023/04/14 04:38:42;;;;;;;1.13;1.13;;;;;1.90;95188.00;;;;5053073;28;20201;-62
2023/04/14 04:41:21;;;;;;;2.23;1.37;;;;;1.80;95196.00;;;;5052996;28;20219;-62
2023/04/14 04:43:49;;;;;;;1.03;1.03;;;;;1.80;95208.00;;;;5053285;28;20619;-63
2023/04/14 04:46:44;;;;;;;1.03;1.03;;;;;1.90;95196.00;;;;5052830;28;20214;-63
2023/04/14 04:49:11;;;;;;;0.70;0.70;;;;;1.80;95202.00;;;;5053473;28;20187;-63
2023/04/14 04:51:38;;;;;;;0.90;0.90;;;;;1.90;95201.00;;;;5053427;28;20195;-63
2023/04/14 04:54:06;;;;;;;0.70;0.70;;;;;1.80;95210.00;;;;5052970;28;20249;-63
2023/04/14 04:56:34;;;;;;;1.07;1.07;;;;;1.70;95198.00;;;;5052738;28;20644;-63
2023/04/14 04:59:01;;;;;;;1.10;1.10;;;;;1.70;95206.00;;;;5053320;28;20242;-63
2023/04/14 05:01:30;;;;;;;0.93;0.90;;;;;1.70;95195.00;;;;5052724;28;20222;-63
2023/04/14 05:03:58;;;;;;;0.77;0.77;;;;;1.60;95207.00;;;;5052642;28;20678;-64
2023/04/14 05:06:27;;;;;;;1.00;1.00;;;;;1.50;95218.00;;;;5052710;28;20690;-64
2023/04/14 05:08:55;;;;;;;1.40;1.30;;;;;1.70;95202.00;;;;5052640;28;20203;-64
2023/04/14 05:11:22;;;;;;;1.47;1.37;;;;;1.70;95211.00;;;;5035574;28;20282;-64
2023/04/14 05:13:50;;;;;;;0.80;0.80;;;;;1.80;95216.00;;;;5034758;28;20200;-63
2023/04/14 05:16:17;;;;;;;1.00;1.00;;;;;1.90;95207.00;;;;5052853;28;20218;-63
2023/04/14 05:18:45;;;;;;;1.00;1.00;;;;;2.00;95224.00;;;;5052648;28;20199;-63
2023/04/14 05:21:14;;;;;;;1.10;1.10;;;;;2.20;95210.00;;;;5052620;28;20192;-64
2023/04/14 05:23:43;;;;;;;0.80;0.80;;;;;2.30;95221.00;;;;5052505;28;20192;-63
2023/04/14 05:26:12;;;;;;;2.10;1.37;;;;;2.30;95222.00;;;;5052392;28;20212;-63
2023/04/14 05:28:40;;;;;;;0.87;0.87;;;;;2.40;95226.00;;;;5052438;28;20194;-63
2023/04/14 05:31:08;;;;;;;0.73;0.73;;;;;2.50;95218.00;;;;5034610;28;20199;-62
2023/04/14 05:33:35;;;;;;;1.63;1.53;;;;;2.60;95223.00;;;;5052882;28;20254;-63
2023/04/14 05:36:04;;;;;;;0.83;0.83;;;;;2.50;95227.00;;;;5052620;28;20314;-63
2023/04/14 05:38:32;;;;;;;0.80;0.80;;;;;2.60;95233.00;;;;5052586;28;20532;-63
2023/04/14 05:40:59;;;;;;;1.33;1.30;;;;;2.80;95236.00;;;;5052565;28;20192;-64
2023/04/14 05:43:26;;;;;;;0.80;0.80;;;;;2.90;95231.00;;;;5054115;28;20220;-64
2023/04/14 05:45:57;;;;;;;1.27;1.27;;;;;3.00;95232.00;;;;5056096;28;20207;-64
2023/04/14 05:48:27;;;;;;;1.20;1.20;;;;;3.10;95234.00;;;;5056706;28;20187;-64
2023/04/14 05:50:54;;;;;;;1.77;1.67;;;;;3.20;95241.00;;;;5056382;28;20196;-62
2023/04/14 05:53:23;;;;;;;1.03;1.03;;;;;3.20;95242.00;;;;5056122;28;20259;-62
2023/04/14 05:55:52;;;;;;;1.70;1.43;;;;;3.30;95240.00;;;;5055866;28;20226;-63
2023/04/14 05:58:20;;;;;;;0.70;0.70;;;;;3.40;95247.00;;;;5055839;28;20193;-62
2023/04/14 06:00:47;;;;;;;0.83;0.83;;;;;3.50;95246.00;;;;5055849;28;20208;-62
2023/04/14 06:03:15;;;;;;;4.80;1.63;;;;;3.60;95257.00;;;;5037842;28;20224;-63
2023/04/14 06:05:43;;;;;;;1.20;1.20;;;;;3.70;95242.00;;;;5055932;28;20302;-62
2023/04/14 06:08:10;;;;;;;0.90;0.90;;;;;3.70;95245.00;;;;5055635;28;20196;-63
2023/04/14 06:10:39;;;;;;;0.83;0.83;;;;;3.80;95245.00;;;;5055799;28;20195;-62
2023/04/14 06:13:07;;;;;;;1.37;1.37;;;;;3.90;95244.00;;;;5055588;28;20193;-63
2023/04/14 06:15:34;;;;;;;1.00;1.00;;;;;4.10;95243.00;;;;5055777;28;20701;-62
2023/04/14 06:18:02;;;;;;;0.60;0.60;;;;;4.10;95247.00;;;;5055494;28;20196;-62
2023/04/14 06:20:30;;;;;;;0.60;0.60;;;;;4.20;95252.00;;;;5055478;28;20203;-62
2023/04/14 06:22:59;;;;;;;1.17;1.17;;;;;4.30;95246.00;;;;5055924;28;20227;-63
2023/04/14 06:25:26;;;;;;;0.83;0.80;;;;;4.40;95245.00;;;;5055387;28;20224;-62
2023/04/14 06:27:55;;;;;;;0.70;0.70;;;;;4.50;95236.00;;;;5055496;28;20747;-63
2023/04/14 06:30:24;;;;;;;6.27;1.57;;;;;4.60;95251.00;;;;5055226;28;20192;-62
2023/04/14 06:32:52;;;;;;;0.60;0.60;;;;;4.70;95243.00;;;;5055304;28;20188;-63
2023/04/14 06:35:20;;;;;;;1.20;1.20;;;;;4.80;95244.00;;;;5054999;28;20196;-62
2023/04/14 06:37:47;;;;;;;2.90;1.30;;;;;4.80;95245.00;;;;5055120;28;20194;-62
2023/04/14 06:40:15;;;;;;;1.13;1.13;;;;;5.00;95245.00;;;;5054961;28;20683;-62
2023/04/14 06:42:43;;;;;;;0.70;0.70;;;;;5.10;95247.00;;;;5054962;28;20224;-64
2023/04/14 06:45:12;;;;;;;0.90;0.90;;;;;5.20;95233.00;;;;5054935;28;20190;-62
2023/04/14 06:47:40;;;;;;;0.93;0.93;;;;;5.30;95238.00;;;;5054904;28;20192;-62
2023/04/14 06:50:08;;;;;;;0.90;0.90;;;;;5.40;95244.00;;;;5054939;28;20196;-63
2023/04/14 06:52:35;;;;;;;0.60;0.60;;;;;5.50;95242.00;;;;5054949;28;20197;-62
2023/04/14 06:55:03;;;;;;;0.60;0.60;;;;;5.60;95241.00;;;;5054649;28;20192;-63
2023/04/14 06:57:30;;;;;;;0.60;0.60;;;;;5.50;95234.00;;;;5055083;28;20267;-63
2023/04/14 06:59:57;;;;;;;0.63;0.63;;;;;5.60;95238.00;;;;5055093;28;20196;-63
2023/04/14 07:02:27;;;;;;;0.70;0.70;;;;;5.70;95233.00;;;;5054618;28;20215;-63
2023/04/14 07:04:55;;;;;;;1.40;1.30;;;;;5.80;95228.00;;;;5054925;28;20282;-63
2023/04/14 07:07:23;;;;;;;0.63;0.63;;;;;6.00;95226.00;;;;5036619;28;20686;-62
2023/04/14 07:09:50;;;;;;;0.60;0.60;;;;;6.10;95230.00;;;;5054615;28;20279;-63
2023/04/14 07:12:18;;;;;;;0.97;0.97;;;;;6.10;95226.00;;;;5054566;28;20196;-63
2023/04/14 07:14:50;;;;;;;0.77;0.77;;;;;6.30;95224.00;;;;5054518;28;20536;-61
2023/04/14 07:17:18;;;;;;;0.60;0.60;;;;;6.30;95219.00;;;;5054370;28;20225;-61
2023/04/14 07:19:47;;;;;;;0.80;0.80;;;;;6.40;95214.00;;;;5036443;28;20678;-61
2023/04/14 07:22:14;;;;;;;1.27;1.17;;;;;6.50;95209.00;;;;5054257;28;20219;-62
2023/04/14 07:24:42;;;;;;;0.83;0.83;;;;;6.90;95211.00;;;;5054664;28;20214;-61
2023/04/14 07:27:13;;;;;;;0.50;0.50;;;;;7.10;95211.00;;;;5055078;28;20542;-62
2023/04/14 07:29:41;;;;;;;0.60;0.60;;;;;7.10;95212.00;;;;5054284;28;20278;-63
2023/04/14 07:32:10;;;;;;;0.73;0.73;;;;;7.10;95212.00;;;;5054399;28;20361;-63
2023/04/14 07:34:38;;;;;;;0.90;0.90;;;;;7.30;95202.00;;;;5036176;28;20206;-62
2023/04/14 07:37:07;;;;;;;2.30;1.33;;;;;7.40;95207.00;;;;5054105;28;20238;-62
2023/04/14 07:39:34;;;;;;;1.20;1.10;;;;;7.50;95209.00;;;;5054077;28;20191;-64
2023/04/14 07:42:02;;;;;;;0.60;0.60;;;;;7.40;95204.00;;;;5053876;28;20291;-64
2023/04/14 07:44:29;;;;;;;0.57;0.57;;;;;7.50;95192.00;;;;5053878;28;20202;-62
2023/04/14 07:46:56;;;;;;;1.00;1.00;;;;;7.80;95197.00;;;;5053739;28;20223;-63
2023/04/14 07:49:24;;;;;;;0.60;0.60;;;;;7.80;95194.00;;;;5035852;28;20199;-61
2023/04/14 07:51:52;;;;;;;2.13;1.27;;;;;7.90;95198.00;;;;5053675;28;20196;-62
2023/04/14 07:54:21;;;;;;;0.60;0.60;;;;;7.90;95197.00;;;;5053578;28;20682;-62
2023/04/14 07:56:48;;;;;;;0.50;0.50;;;;;7.90;95206.00;;;;5053392;28;20575;-63
2023/04/14 07:59:15;;;;;;;1.03;1.03;;;;;8.00;95196.00;;;;5053460;28;20314;-64
2023/04/14 08:01:43;;;;;;;0.63;0.63;;;;;8.10;95190.00;;;;5036220;28;20199;-63
2023/04/14 08:04:11;;;;;;;0.57;0.57;;;;;8.20;95187.00;;;;5053378;28;20215;-62
2023/04/14 08:06:38;;;;;;;0.70;0.70;;;;;8.20;95194.00;;;;5052821;28;20678;-62
2023/04/14 08:09:05;;;;;;;4.03;1.33;;;;;8.30;95192.00;;;;5053544;28;20207;-62
2023/04/14 08:11:37;;;;;;;0.60;0.60;;;;;8.30;95189.00;;;;5053315;28;20199;-63
2023/04/14 08:14:04;;;;;;;0.80;0.80;;;;;8.40;95189.00;;;;5053590;28;20180;-62
2023/04/14 08:16:35;;;;;;;0.60;0.60;;;;;8.50;95190.00;;;;5035187;28;20698;-61
2023/04/14 08:19:02;;;;;;;0.70;0.70;;;;;8.50;95203.00;;;;5035859;28;20606;-62
2023/04/14 08:21:30;;;;;;;0.60;0.60;;;;;8.40;95193.00;;;;5053121;28;20207;-62
2023/04/14 08:23:57;;;;;;;0.70;0.70;;;;;8.50;95207.00;;;;5053055;28;20294;-62
2023/04/14 08:26:26;;;;;;;2.97;1.23;;;;;8.70;95208.00;;;;5053255;28;20701;-62
2023/04/14 08:28:55;;;;;;;0.60;0.60;;;;;8.80;95204.00;;;;5053634;28;20211;-62
2023/04/14 08:31:24;;;;;;;1.07;0.97;;;;;8.80;95201.00;;;;5035056;28;20200;-61
2023/04/14 08:33:51;;;;;;;1.43;1.40;;;;;8.80;95213.00;;;;5053176;28;20193;-62
2023/04/14 08:36:19;;;;;;;0.67;0.67;;;;;9.00;95204.00;;;;5053171;28;20248;-62
2023/04/14 08:38:47;;;;;;;0.70;0.70;;;;;9.10;95205.00;;;;5035048;28;20222;-62
2023/04/14 08:41:17;;;;;;;0.60;0.60;;;;;9.20;95197.00;;;;5034984;28;20208;-61
2023/04/14 08:43:45;;;;;;;6.50;1.43;;;;;9.20;95197.00;;;;5052872;28;20238;-62
2023/04/14 08:46:15;;;;;;;0.60;0.60;;;;;9.40;95196.00;;;;5052936;28;20208;-62
2023/04/14 08:48:45;;;;;;;0.53;0.53;;;;;9.30;95195.00;;;;5052780;28;20204;-62
2023/04/14 08:51:20;;;;;;;0.60;0.60;;;;;9.30;95190.00;;;;5053013;28;20185;-62
2023/04/14 08:53:50;;;;;;;0.50;0.50;;;;;9.50;95192.00;;;;5053112;28;20670;-62
2023/04/14 08:56:21;;;;;;;0.60;0.60;;;;;9.60;95198.00;;;;5052757;28;20295;-63
2023/04/14 08:58:49;;;;;;;1.13;1.13;;;;;9.60;95195.00;;;;5053028;28;20190;-63
2023/04/14 09:01:18;;;;;;;0.73;0.73;;;;;9.80;95190.00;;;;5052722;28;20275;-62
2023/04/14 09:03:47;;;;;;;1.63;1.53;;;;;9.70;95185.00;;;;5052707;28;20577;-62
2023/04/14 09:06:15;;;;;;;0.60;0.60;;;;;9.80;95188.00;;;;5052541;28;20208;-62
2023/04/14 09:08:42;;;;;;;0.60;0.60;;;;;10.00;95196.00;;;;5053067;28;20199;-62
2023/04/14 09:11:10;;;;;;;0.60;0.60;;;;;10.10;95185.00;;;;5052598;28;20291;-63
2023/04/14 09:13:39;;;;;;;1.07;1.07;;;;;10.30;95186.00;;;;5052625;28;20286;-63
2023/04/14 09:16:08;;;;;;;0.60;0.60;;;;;10.50;95188.00;;;;5052735;28;20222;-63
2023/04/14 09:18:37;;;;;;;0.60;0.60;;;;;10.40;95182.00;;;;5056162;28;20207;-63
2023/04/14 09:21:05;;;;;;;0.80;0.80;;;;;10.40;95181.00;;;;5056570;28;20201;-62
2023/04/14 09:23:32;;;;;;;0.50;0.50;;;;;10.70;95175.00;;;;5056445;28;20219;-62
2023/04/14 09:26:01;;;;;;;0.60;0.60;;;;;11.00;95181.00;;;;5056453;28;20216;-63
2023/04/14 09:28:28;;;;;;;0.60;0.60;;;;;11.20;95186.00;;;;5056534;28;20196;-64
2023/04/14 09:30:56;;;;;;;0.50;0.50;;;;;11.00;95181.00;;;;5056444;28;20192;-63
2023/04/14 09:33:25;;;;;;;0.50;0.50;;;;;11.30;95179.00;;;;5056688;28;20192;-62
2023/04/14 09:35:54;;;;;;;1.03;1.03;;;;;10.90;95178.00;;;;5056334;28;20211;-63
2023/04/14 09:38:35;;;;;;;0.87;0.87;;;;;11.10;95176.00;;;;5056302;28;20192;-62
2023/04/14 09:41:03;;;;;;;0.80;0.70;;;;;11.30;95182.00;;;;5056805;28;20196;-62
2023/04/14 09:43:30;;;;;;;0.70;0.70;;;;;11.50;95181.00;;;;5056393;28;20216;-62
2023/04/14 09:46:04;;;;;;;0.87;0.87;;;;;11.90;95176.00;;;;5056149;28;20208;-63
2023/04/14 09:48:31;;;;;;;0.60;0.60;;;;;12.20;95181.00;;;;5056494;28;20594;-63
2023/04/14 09:51:05;;;;;;;0.57;0.57;;;;;12.50;95182.00;;;;5056214;28;20218;-64
2023/04/14 09:53:34;;;;;;;0.53;0.53;;;;;12.90;95188.00;;;;5056066;28;20631;-63
2023/04/14 09:56:04;;;;;;;0.73;0.73;;;;;13.10;95188.00;;;;5055808;28;20255;-63
2023/04/14 09:58:34;;;;;;;0.50;0.50;;;;;13.20;95191.00;;;;5056576;28;20196;-62
2023/04/14 10:01:03;;;;;;;0.50;0.50;;;;;13.30;95186.00;;;;5055871;28;20192;-62
2023/04/14 10:03:35;;;;;;;1.33;1.23;;;;;13.40;95177.00;;;;5055798;28;20223;-63
2023/04/14 10:06:08;;;;;;;0.70;0.70;;;;;13.60;95178.00;;;;5056089;28;20290;-62
2023/04/14 10:08:37;;;;;;;0.50;0.50;;;;;13.70;95166.00;;;;5056089;28;20180;-63
2023/04/14 10:11:21;;;;;;;0.93;0.93;;;;;13.80;95178.00;;;;5055727;28;20192;-63
2023/04/14 10:13:51;;;;;;;0.97;0.73;;;;;13.40;95174.00;;;;5056002;28;20501;-63
2023/04/14 10:16:18;;;;;;;1.03;0.70;;;;;13.50;95153.00;;;;5055914;28;20218;-63
2023/04/14 10:18:46;;;;;;;1.10;1.10;;;;;13.80;95156.00;;;;5055442;28;20188;-63
2023/04/14 10:21:16;;;;;;;0.53;0.53;;;;;14.10;95158.00;;;;5055528;28;20664;-63
2023/04/14 10:23:44;;;;;;;0.50;0.50;;;;;14.40;95161.00;;;;5037542;28;20224;-63
2023/04/14 10:26:13;;;;;;;0.40;0.40;;;;;14.60;95153.00;;;;5055407;28;20220;-64
2023/04/14 10:28:43;;;;;;;0.63;0.63;;;;;14.30;95170.00;;;;5036861;28;20211;-62
2023/04/14 10:31:14;;;;;;;0.80;0.80;;;;;14.10;95166.00;;;;5055435;28;20260;-63
2023/04/14 10:33:42;;;;;;;0.50;0.50;;;;;13.60;95171.00;;;;5055554;28;20631;-63
2023/04/14 10:36:10;;;;;;;0.60;0.60;;;;;13.40;95165.00;;;;5055300;28;20220;-63
2023/04/14 10:38:41;;;;;;;0.60;0.60;;;;;13.20;95166.00;;;;5037272;28;20196;-62
2023/04/14 10:41:08;;;;;;;1.10;1.00;;;;;13.00;95163.00;;;;5055723;28;20192;-62
2023/04/14 10:43:36;;;;;;;0.57;0.57;;;;;12.60;95163.00;;;;5055320;28;20208;-62
2023/04/14 10:46:05;;;;;;;0.93;0.93;;;;;12.70;95161.00;;;;5055268;28;20309;-63
2023/04/14 10:48:34;;;;;;;1.00;1.00;;;;;12.90;95162.00;;;;5055070;28;20196;-63
2023/04/14 10:51:03;;;;;;;0.70;0.70;;;;;12.80;95147.00;;;;5055780;28;20627;-63
2023/04/14 10:53:48;;;;;;;0.80;0.80;;;;;12.80;95152.00;;;;5055771;28;20279;-63
2023/04/14 10:56:20;;;;;;;0.60;0.60;;;;;12.50;95149.00;;;;5054948;28;20223;-63
2023/04/14 10:58:55;;;;;;;3.93;0.83;;;;;12.70;95138.00;;;;5055237;28;20681;-63
2023/04/14 11:01:28;;;;;;;0.60;0.60;;;;;12.90;95134.00;;;;5054857;28;20183;-63
2023/04/14 11:03:56;;;;;;;0.80;0.80;;;;;12.70;95136.00;;;;5036904;28;20216;-63
2023/04/14 11:06:48;;;;;;;0.53;0.53;;;;;12.70;95135.00;;;;5054679;28;20706;-62
2023/04/14 11:09:36;;;;;;;0.70;0.70;;;;;12.70;95132.00;;;;5050734;28;20713;-63
2023/04/14 11:12:05;;;;;;;0.80;0.80;;;;;12.80;95138.00;;;;5054935;28;20543;-64
2023/04/14 11:14:35;;;;;;;0.53;0.53;;;;;12.80;95122.00;;;;5054603;28;20199;-62
2023/04/14 11:17:03;;;;;;;0.70;0.70;;;;;13.20;95119.00;;;;5054502;28;20216;-62
2023/04/14 11:19:31;;;;;;;0.90;0.90;;;;;13.30;95128.00;;;;5054853;28;20663;-61
2023/04/14 11:21:59;;;;;;;0.43;0.43;;;;;13.30;95124.00;;;;5036577;28;20286;-63
2023/04/14 11:24:28;;;;;;;0.70;0.70;;;;;13.60;95092.00;;;;5054441;28;20220;-62
2023/04/14 11:26:58;;;;;;;0.60;0.60;;;;;14.20;95095.00;;;;5054392;28;20239;-62
2023/04/14 11:29:26;;;;;;;1.47;0.97;;;;;14.40;95120.00;;;;5054590;28;20270;-63
2023/04/14 11:32:04;;;;;;;0.67;0.67;;;;;14.90;95104.00;;;;5054636;28;20526;-63
2023/04/14 11:34:32;;;;;;;0.70;0.70;;;;;14.90;95079.00;;;;5054369;28;20176;-62
2023/04/14 11:37:02;;;;;;;0.70;0.70;;;;;15.80;95082.00;;;;5054190;28;20208;-63
2023/04/14 11:39:30;;;;;;;0.60;0.60;;;;;16.30;95091.00;;;;5054316;28;20265;-64
2023/04/14 11:41:59;;;;;;;1.10;1.00;;;;;16.50;95095.00;;;;5053384;28;20195;-63
2023/04/14 11:44:27;;;;;;;0.60;0.60;;;;;15.90;95116.00;;;;5054085;28;20203;-63
2023/04/14 11:46:55;;;;;;;0.40;0.40;;;;;15.20;95118.00;;;;5053991;28;20215;-63
2023/04/14 11:49:34;;;;;;;0.70;0.70;;;;;14.90;95117.00;;;;5054536;28;20192;-63
2023/04/14 11:52:06;;;;;;;0.50;0.50;;;;;14.40;95121.00;;;;5054302;28;20578;-63
2023/04/14 11:54:37;;;;;;;0.40;0.40;;;;;14.70;95104.00;;;;5053824;28;20184;-64
2023/04/14 11:57:10;;;;;;;0.57;0.57;;;;;14.50;95105.00;;;;5078404;22;20258;-61
2023/04/14 11:59:43;;;;;;;0.60;0.60;;;;;14.40;95109.00;;;;5074193;28;20190;-61
2023/04/14 12:02:20;;;;;;;0.60;0.60;;;;;14.30;95112.00;;;;5090860;28;20968;-62
2023/04/14 12:04:51;;;;;;;0.67;0.67;;;;;14.60;95102.00;;;;5090916;28;20190;-61
2023/04/14 12:07:20;;;;;;;0.50;0.50;;;;;14.60;95096.00;;;;5090802;28;20551;-61
2023/04/14 12:09:49;;;;;;;0.70;0.70;;;;;14.20;95091.00;;;;5090563;28;20187;-61
2023/04/14 12:12:17;;;;;;;0.63;0.63;;;;;14.30;95095.00;;;;5090718;28;20555;-61
2023/04/14 12:14:46;;;;;;;0.87;0.87;;;;;14.30;95097.00;;;;5090691;28;20595;-61
2023/04/14 12:17:15;;;;;;;0.50;0.50;;;;;14.20;95085.00;;;;5090596;28;20568;-61
2023/04/14 12:19:44;;;;;;;0.83;0.83;;;;;14.30;95095.00;;;;5089037;28;20241;-61
2023/04/14 12:22:12;;;;;;;0.60;0.60;;;;;14.20;95090.00;;;;5090322;28;20681;-61
2023/04/14 12:24:40;;;;;;;0.50;0.50;;;;;14.30;95076.00;;;;5090504;28;20194;-61
2023/04/14 12:27:09;;;;;;;0.60;0.60;;;;;15.00;95061.00;;;;5090447;28;20213;-61
2023/04/14 12:29:36;;;;;;;0.97;0.80;;;;;15.80;95054.00;;;;5090182;28;20260;-61
2023/04/14 12:32:11;;;;;;;1.70;1.43;;;;;16.20;95049.00;;;;5090133;28;20196;-61
2023/04/14 12:34:38;;;;;;;0.60;0.60;;;;;16.50;95043.00;;;;5090133;28;20228;-62